Time;durP1;ratioP1;P1;durP2;ratioP2;P2;SDS_P1;SDS_P2;PMS_P1;PMS_P2;Temp;Humidity;BMP_temperature;BMP_pressure;BME280_temperature;BME280_humidity;BME280_pressure;Samples;Min_cycle;Max_cycle;Signal;HPM_P1;HPM_P2
2021/07/18 00:02:05;;;;;;;38.50;35.30;;;19.00;99.90;;;;;;4954639;29;20492;-76
2021/07/18 00:04:32;;;;;;;36.70;33.80;;;19.00;99.90;;;;;;4954319;29;20456;-76
2021/07/18 00:06:58;;;;;;;38.83;35.33;;;19.00;99.90;;;;;;4954167;29;20452;-75
2021/07/18 00:09:25;;;;;;;37.97;34.77;;;18.90;99.90;;;;;;4954158;29;20961;-76
2021/07/18 00:11:52;;;;;;;36.90;33.70;;;18.90;99.90;;;;;;4954615;29;20453;-76
2021/07/18 00:14:18;;;;;;;36.70;33.37;;;18.90;99.90;;;;;;4954203;29;20535;-76
2021/07/18 00:16:46;;;;;;;38.63;35.10;;;18.80;99.90;;;;;;4953820;29;20488;-76
2021/07/18 00:19:13;;;;;;;36.60;33.40;;;18.80;99.90;;;;;;4954182;29;20457;-76
2021/07/18 00:21:40;;;;;;;37.57;34.20;;;18.60;99.90;;;;;;4954024;29;20551;-76
2021/07/18 00:24:07;;;;;;;36.27;32.83;;;18.60;99.90;;;;;;4954301;29;20459;-76
2021/07/18 00:26:34;;;;;;;37.30;34.07;;;18.60;99.90;;;;;;4953861;29;20445;-76
2021/07/18 00:29:01;;;;;;;38.57;34.90;;;18.50;99.90;;;;;;4953905;29;20507;-76
2021/07/18 00:31:27;;;;;;;40.83;37.07;;;18.50;99.90;;;;;;4953899;29;20522;-77
2021/07/18 00:33:55;;;;;;;38.80;35.30;;;18.40;99.90;;;;;;4953728;29;20966;-77
2021/07/18 00:36:22;;;;;;;38.23;35.03;;;18.40;99.90;;;;;;4953736;29;20457;-76
2021/07/18 00:38:49;;;;;;;37.00;33.87;;;18.40;99.90;;;;;;4953721;29;20463;-76
2021/07/18 00:41:15;;;;;;;38.83;34.97;;;18.40;99.90;;;;;;4953413;29;20555;-76
2021/07/18 00:43:42;;;;;;;40.27;36.67;;;18.30;99.90;;;;;;4953559;29;20492;-76
2021/07/18 00:46:09;;;;;;;38.00;34.27;;;18.30;99.90;;;;;;4953724;29;20468;-76
2021/07/18 00:48:36;;;;;;;39.07;35.77;;;18.30;99.90;;;;;;4953711;29;20457;-76
2021/07/18 00:51:04;;;;;;;37.37;33.90;;;18.30;99.90;;;;;;4953686;29;20456;-76
2021/07/18 00:53:31;;;;;;;38.70;35.03;;;18.30;99.90;;;;;;4953352;29;20585;-76
2021/07/18 00:55:58;;;;;;;39.60;35.33;;;18.20;99.90;;;;;;4951671;29;20480;-76
2021/07/18 00:58:30;;;;;;;39.30;35.50;;;18.20;99.90;;;;;;4952876;28;20503;-76
2021/07/18 01:00:57;;;;;;;37.30;34.03;;;18.10;99.90;;;;;;4951461;29;20849;-76
2021/07/18 01:03:26;;;;;;;40.37;36.20;;;18.20;99.90;;;;;;4953308;29;20463;-75
2021/07/18 01:05:52;;;;;;;37.17;33.53;;;18.10;99.90;;;;;;4951291;29;20552;-75
2021/07/18 01:08:21;;;;;;;40.13;36.53;;;18.10;99.90;;;;;;4953641;29;20997;-76
2021/07/18 01:10:47;;;;;;;36.43;33.47;;;18.10;99.90;;;;;;4953152;29;20448;-76
2021/07/18 01:13:14;;;;;;;40.00;36.30;;;18.00;99.90;;;;;;4945218;29;20477;-76
2021/07/18 01:15:41;;;;;;;38.03;34.63;;;18.00;99.90;;;;;;4952731;28;20507;-75
2021/07/18 01:18:08;;;;;;;38.80;35.33;;;18.00;99.90;;;;;;4953001;29;20468;-75
2021/07/18 01:20:36;;;;;;;36.73;33.73;;;17.90;99.90;;;;;;4953121;29;20820;-75
2021/07/18 01:23:04;;;;;;;36.60;33.23;;;17.90;99.90;;;;;;4952891;29;20463;-75
2021/07/18 01:25:33;;;;;;;36.07;32.83;;;17.80;99.90;;;;;;4952897;29;20460;-75
2021/07/18 01:28:01;;;;;;;37.23;32.80;;;17.90;99.90;;;;;;4952674;29;20833;-75
2021/07/18 01:30:28;;;;;;;36.27;33.07;;;17.90;99.90;;;;;;4952727;29;20452;-75
2021/07/18 01:32:55;;;;;;;36.53;33.20;;;17.80;99.90;;;;;;4952662;29;20465;-76
2021/07/18 01:35:21;;;;;;;35.13;31.97;;;17.70;99.90;;;;;;4952752;29;20457;-75
2021/07/18 01:37:48;;;;;;;34.67;31.43;;;17.70;99.90;;;;;;4952771;29;20453;-75
2021/07/18 01:40:16;;;;;;;34.33;31.27;;;17.70;99.90;;;;;;4952783;29;20448;-76
2021/07/18 01:42:43;;;;;;;37.97;33.47;;;17.60;99.90;;;;;;4952507;29;20510;-75
2021/07/18 01:45:11;;;;;;;36.10;32.60;;;17.60;99.90;;;;;;4952602;29;20460;-76
2021/07/18 01:47:37;;;;;;;33.40;30.60;;;17.50;99.90;;;;;;4952623;29;20457;-75
2021/07/18 01:50:06;;;;;;;34.27;31.37;;;17.40;99.90;;;;;;4952735;29;20452;-76
2021/07/18 01:52:33;;;;;;;34.13;31.40;;;17.40;99.90;;;;;;4952570;29;20488;-75
2021/07/18 01:54:59;;;;;;;33.20;30.40;;;17.40;99.90;;;;;;4952370;29;20862;-76
2021/07/18 01:57:27;;;;;;;35.17;32.37;;;17.30;99.90;;;;;;4952380;29;20511;-75
2021/07/18 01:59:54;;;;;;;36.13;33.00;;;17.30;99.90;;;;;;4952181;29;20457;-76
2021/07/18 02:02:21;;;;;;;34.10;31.43;;;17.30;99.90;;;;;;4952569;29;20496;-75
2021/07/18 02:04:48;;;;;;;33.10;30.47;;;17.30;99.90;;;;;;4952559;29;20551;-76
2021/07/18 02:07:16;;;;;;;34.27;31.27;;;17.30;99.90;;;;;;4952125;29;20488;-75
2021/07/18 02:09:43;;;;;;;33.70;30.60;;;17.30;99.90;;;;;;4951540;28;20697;-78
2021/07/18 02:12:10;;;;;;;32.90;30.30;;;17.30;99.90;;;;;;4950376;29;20448;-78
2021/07/18 02:14:39;;;;;;;33.53;30.43;;;17.20;99.90;;;;;;4952189;29;20479;-79
2021/07/18 02:17:07;;;;;;;33.60;30.47;;;17.10;99.90;;;;;;4952387;29;20457;-78
2021/07/18 02:19:34;;;;;;;34.57;31.27;;;17.00;99.90;;;;;;4952364;29;20459;-78
2021/07/18 02:22:01;;;;;;;32.63;29.90;;;17.00;99.90;;;;;;4952014;29;21040;-77
2021/07/18 02:24:28;;;;;;;31.47;28.80;;;16.90;99.90;;;;;;4952085;29;20713;-77
2021/07/18 02:26:55;;;;;;;31.13;28.50;;;16.90;99.90;;;;;;4952030;29;20456;-78
2021/07/18 02:29:23;;;;;;;31.67;28.40;;;16.90;99.90;;;;;;4952258;29;20460;-78
2021/07/18 02:31:51;;;;;;;30.37;27.77;;;16.90;99.90;;;;;;4952440;29;20870;-77
2021/07/18 02:34:18;;;;;;;32.43;29.60;;;16.90;99.90;;;;;;4950437;29;20452;-77
2021/07/18 02:36:45;;;;;;;31.87;28.97;;;16.90;99.90;;;;;;4952160;29;20460;-77
2021/07/18 02:39:12;;;;;;;31.40;28.87;;;16.80;99.90;;;;;;4952009;29;20717;-77
2021/07/18 02:41:39;;;;;;;32.10;29.57;;;16.90;99.90;;;;;;4951709;29;20543;-77
2021/07/18 02:44:07;;;;;;;27.80;25.10;;;16.80;99.90;;;;;;4952130;29;20511;-77
2021/07/18 02:46:34;;;;;;;30.03;27.43;;;16.80;99.90;;;;;;4951995;29;20456;-76
2021/07/18 02:49:02;;;;;;;29.63;27.10;;;16.80;99.90;;;;;;4951951;29;20503;-76
2021/07/18 02:51:29;;;;;;;28.10;25.87;;;16.70;99.90;;;;;;4951827;29;20471;-76
2021/07/18 02:53:56;;;;;;;30.97;27.27;;;16.70;99.90;;;;;;4951833;29;20507;-76
2021/07/18 02:56:22;;;;;;;27.10;24.60;;;16.70;99.90;;;;;;4952023;29;20460;-76
2021/07/18 02:58:49;;;;;;;27.63;25.30;;;16.70;99.90;;;;;;4951912;29;20471;-76
2021/07/18 03:01:16;;;;;;;27.27;25.20;;;16.70;99.90;;;;;;4951558;29;21021;-75
2021/07/18 03:03:42;;;;;;;26.43;24.57;;;16.60;99.90;;;;;;4951716;29;20448;-75
2021/07/18 03:06:10;;;;;;;27.20;24.80;;;16.60;99.90;;;;;;4951775;29;20463;-76
2021/07/18 03:08:38;;;;;;;26.37;24.27;;;16.60;99.90;;;;;;4951875;29;20460;-75
2021/07/18 03:11:05;;;;;;;25.77;23.97;;;16.60;99.90;;;;;;4951917;29;20556;-75
2021/07/18 03:13:31;;;;;;;26.40;24.17;;;16.50;99.90;;;;;;4951611;29;20473;-76
2021/07/18 03:15:58;;;;;;;26.20;24.47;;;16.40;99.90;;;;;;4951770;28;20484;-75
2021/07/18 03:18:25;;;;;;;26.00;24.10;;;16.40;99.90;;;;;;4951626;29;20464;-76
2021/07/18 03:20:51;;;;;;;25.50;23.40;;;16.40;99.90;;;;;;4953337;28;20867;-75
2021/07/18 03:23:20;;;;;;;25.27;23.30;;;16.30;99.90;;;;;;4955088;29;20488;-75
2021/07/18 03:25:46;;;;;;;23.87;22.17;;;16.30;99.90;;;;;;4955185;29;20462;-75
2021/07/18 03:28:13;;;;;;;26.43;24.13;;;16.30;99.90;;;;;;4954932;29;20966;-76
2021/07/18 03:30:40;;;;;;;24.70;22.70;;;16.30;99.90;;;;;;4955063;29;20460;-76
2021/07/18 03:33:06;;;;;;;23.67;21.83;;;16.30;99.90;;;;;;4953537;29;20931;-76
2021/07/18 03:35:33;;;;;;;24.03;22.17;;;16.30;99.90;;;;;;4954999;29;20452;-75
2021/07/18 03:38:00;;;;;;;22.90;20.90;;;16.20;99.90;;;;;;4954858;29;20863;-75
2021/07/18 03:40:29;;;;;;;24.03;22.00;;;16.20;99.90;;;;;;4954784;29;20491;-75
2021/07/18 03:42:56;;;;;;;22.87;21.20;;;16.20;99.90;;;;;;4954731;29;20520;-75
2021/07/18 03:45:23;;;;;;;24.00;22.30;;;16.20;99.90;;;;;;4954792;29;20467;-76
2021/07/18 03:47:50;;;;;;;25.53;23.03;;;16.20;99.90;;;;;;4954770;29;20858;-75
2021/07/18 03:50:18;;;;;;;23.73;21.87;;;16.20;99.90;;;;;;4954640;29;20536;-75
2021/07/18 03:52:45;;;;;;;23.50;21.90;;;16.10;99.90;;;;;;4952934;29;20452;-76
2021/07/18 03:55:12;;;;;;;24.53;23.00;;;16.10;99.90;;;;;;4954540;29;20475;-76
2021/07/18 03:57:40;;;;;;;23.60;22.10;;;16.10;99.90;;;;;;4954470;29;20866;-75
2021/07/18 04:00:08;;;;;;;23.83;22.07;;;16.10;99.90;;;;;;4954584;29;20465;-75
2021/07/18 04:02:34;;;;;;;22.63;21.03;;;16.10;99.90;;;;;;4954629;29;20851;-76
2021/07/18 04:05:01;;;;;;;24.03;22.43;;;16.20;99.90;;;;;;4954436;29;20461;-75
2021/07/18 04:07:32;;;;;;;24.50;22.80;;;16.20;99.90;;;;;;4954422;29;20452;-75
2021/07/18 04:10:00;;;;;;;26.27;23.90;;;16.20;99.90;;;;;;4954240;29;20456;-75
2021/07/18 04:12:26;;;;;;;25.13;22.93;;;16.20;99.90;;;;;;4954152;29;21030;-75
2021/07/18 04:14:55;;;;;;;25.63;23.43;;;16.30;99.90;;;;;;4952444;28;20484;-75
2021/07/18 04:17:21;;;;;;;27.93;25.77;;;16.30;99.90;;;;;;4954651;29;20460;-75
2021/07/18 04:19:48;;;;;;;23.30;21.73;;;16.30;99.90;;;;;;4954385;29;20465;-76
2021/07/18 04:22:15;;;;;;;24.97;22.73;;;16.40;99.90;;;;;;4954237;29;20492;-74
2021/07/18 04:24:41;;;;;;;21.93;20.53;;;16.40;99.90;;;;;;4953965;29;20998;-75
2021/07/18 04:27:09;;;;;;;23.30;21.57;;;16.40;99.90;;;;;;4954045;29;20453;-76
2021/07/18 04:29:36;;;;;;;21.83;20.33;;;16.50;99.90;;;;;;4952276;29;20841;-74
2021/07/18 04:32:04;;;;;;;20.73;19.40;;;16.50;99.90;;;;;;4950814;28;20481;-75
2021/07/18 04:34:31;;;;;;;21.37;19.97;;;16.60;99.90;;;;;;4953535;29;21022;-75
2021/07/18 04:36:58;;;;;;;19.87;18.30;;;16.60;99.90;;;;;;4954042;29;20449;-74
2021/07/18 04:39:25;;;;;;;20.53;19.13;;;16.60;99.90;;;;;;4953835;29;20484;-75
2021/07/18 04:41:52;;;;;;;19.70;18.30;;;16.80;99.90;;;;;;4953673;29;21017;-76
2021/07/18 04:44:18;;;;;;;19.10;17.50;;;17.20;99.90;;;;;;4953793;29;20452;-76
2021/07/18 04:46:45;;;;;;;18.67;17.37;;;17.50;99.90;;;;;;4953636;29;20457;-75
2021/07/18 04:49:13;;;;;;;17.73;16.53;;;18.00;99.90;;;;;;4953558;29;20492;-76
2021/07/18 04:51:40;;;;;;;17.77;16.67;;;18.40;99.90;;;;;;4953580;29;20452;-76
2021/07/18 04:54:07;;;;;;;17.73;16.37;;;18.80;99.90;;;;;;4953543;29;20794;-75
2021/07/18 04:56:33;;;;;;;16.23;15.23;;;19.10;99.90;;;;;;4953471;29;20475;-75
2021/07/18 04:59:00;;;;;;;17.30;16.30;;;19.40;99.90;;;;;;4953172;29;20808;-76
2021/07/18 05:01:27;;;;;;;17.20;16.10;;;19.60;99.90;;;;;;4953215;29;21195;-75
2021/07/18 05:03:53;;;;;;;16.03;15.13;;;19.80;99.90;;;;;;4953327;28;20559;-76
2021/07/18 05:06:21;;;;;;;16.83;15.73;;;20.00;99.90;;;;;;4953542;29;20492;-75
2021/07/18 05:08:48;;;;;;;16.37;15.47;;;20.40;99.90;;;;;;4953558;29;20860;-75
2021/07/18 05:11:15;;;;;;;16.60;15.60;;;20.70;99.90;;;;;;4953027;29;20456;-75
2021/07/18 05:13:41;;;;;;;15.73;14.67;;;20.80;99.90;;;;;;4953077;29;20955;-75
2021/07/18 05:16:08;;;;;;;16.00;15.10;;;21.10;99.90;;;;;;4953084;28;20488;-76
2021/07/18 05:18:35;;;;;;;14.60;13.90;;;21.20;99.90;;;;;;4953181;29;20448;-75
2021/07/18 05:21:02;;;;;;;14.70;13.93;;;21.40;99.90;;;;;;4953010;28;20465;-75
2021/07/18 05:23:30;;;;;;;14.83;14.03;;;21.70;99.90;;;;;;4952804;29;20488;-74
2021/07/18 05:25:57;;;;;;;15.53;14.50;;;21.90;99.90;;;;;;4952856;29;20880;-75
2021/07/18 05:28:23;;;;;;;16.87;15.87;;;22.00;99.90;;;;;;4953033;29;20457;-76
2021/07/18 05:30:50;;;;;;;15.17;14.40;;;22.20;99.90;;;;;;4952889;29;20464;-76
2021/07/18 05:33:17;;;;;;;14.33;13.30;;;22.50;99.90;;;;;;4953097;29;20460;-77
2021/07/18 05:35:44;;;;;;;14.90;13.90;;;22.70;99.90;;;;;;4952857;29;20449;-77
2021/07/18 05:38:11;;;;;;;14.33;13.67;;;23.00;99.90;;;;;;4952658;29;20507;-75
2021/07/18 05:40:39;;;;;;;14.70;14.00;;;23.30;99.90;;;;;;4953077;29;20851;-75
2021/07/18 05:43:07;;;;;;;14.90;14.00;;;23.40;99.90;;;;;;4952488;28;21049;-75
2021/07/18 05:45:33;;;;;;;13.10;12.40;;;23.40;99.90;;;;;;4952165;29;20452;-75
2021/07/18 05:48:00;;;;;;;14.03;12.97;;;23.40;99.90;;;;;;4952423;29;20511;-75
2021/07/18 05:50:27;;;;;;;13.33;12.50;;;23.30;99.90;;;;;;4952410;28;20472;-78
2021/07/18 05:52:53;;;;;;;12.63;11.93;;;23.40;99.90;;;;;;4952582;29;20460;-75
2021/07/18 05:55:22;;;;;;;13.43;12.83;;;23.50;99.90;;;;;;4952501;29;20457;-76
2021/07/18 05:57:51;;;;;;;13.70;12.80;;;23.60;99.90;;;;;;4952586;29;20484;-75
2021/07/18 06:00:18;;;;;;;12.70;11.97;;;23.90;99.90;;;;;;4952650;29;20452;-75
2021/07/18 06:02:45;;;;;;;12.77;12.17;;;23.90;99.90;;;;;;4952344;29;20496;-75
2021/07/18 06:05:12;;;;;;;12.83;12.17;;;23.80;99.90;;;;;;4952201;29;20467;-75
2021/07/18 06:07:39;;;;;;;12.40;11.80;;;23.70;99.90;;;;;;4952557;29;20445;-74
2021/07/18 06:10:08;;;;;;;13.23;12.43;;;23.90;99.90;;;;;;4952714;29;20456;-74
2021/07/18 06:12:34;;;;;;;13.50;12.50;;;23.80;99.50;;;;;;4952324;29;20459;-74
2021/07/18 06:15:05;;;;;;;13.80;12.90;;;23.90;99.80;;;;;;4952015;28;20580;-76
2021/07/18 06:17:32;;;;;;;12.90;12.40;;;24.30;99.60;;;;;;4952749;29;20551;-76
2021/07/18 06:19:59;;;;;;;12.73;12.13;;;24.70;98.30;;;;;;4952027;29;20801;-77
2021/07/18 06:22:25;;;;;;;11.80;11.30;;;25.10;97.90;;;;;;4951997;28;20496;-79
2021/07/18 06:24:52;;;;;;;12.47;11.87;;;25.30;96.80;;;;;;4952218;29;20484;-77
2021/07/18 06:27:19;;;;;;;12.70;12.00;;;25.70;95.70;;;;;;4952290;29;20456;-77
2021/07/18 06:29:46;;;;;;;12.63;12.00;;;25.80;95.40;;;;;;4952089;29;20464;-75
2021/07/18 06:32:14;;;;;;;11.77;11.30;;;26.00;95.30;;;;;;4952108;29;20511;-76
2021/07/18 06:34:40;;;;;;;12.43;11.93;;;26.10;94.70;;;;;;4951798;29;20453;-76
2021/07/18 06:37:07;;;;;;;12.50;11.67;;;26.00;94.80;;;;;;4944855;28;20899;-76
2021/07/18 06:39:34;;;;;;;12.13;11.67;;;26.00;93.90;;;;;;4946847;29;20461;-76
2021/07/18 06:42:00;;;;;;;12.50;11.90;;;26.50;94.50;;;;;;4935716;29;20468;-74
2021/07/18 06:44:27;;;;;;;11.90;11.40;;;27.00;93.10;;;;;;4934512;29;20465;-75
2021/07/18 06:46:54;;;;;;;12.10;11.50;;;27.10;92.30;;;;;;4952198;29;20448;-75
2021/07/18 06:49:22;;;;;;;13.33;12.60;;;26.70;92.30;;;;;;4951985;29;20456;-76
2021/07/18 06:51:49;;;;;;;12.80;12.30;;;26.90;92.90;;;;;;4952137;29;20457;-75
2021/07/18 06:54:15;;;;;;;11.70;11.30;;;27.00;92.40;;;;;;4940160;29;20449;-77
2021/07/18 06:56:42;;;;;;;11.80;11.30;;;27.00;92.10;;;;;;4935681;29;20463;-76
2021/07/18 06:59:09;;;;;;;11.67;11.03;;;26.80;91.90;;;;;;4936689;29;20801;-76
2021/07/18 07:01:35;;;;;;;11.90;11.50;;;27.10;91.60;;;;;;4936698;29;20452;-76
2021/07/18 07:04:02;;;;;;;13.53;11.77;;;27.10;91.40;;;;;;4936688;29;20500;-76
2021/07/18 07:06:30;;;;;;;12.17;11.47;;;27.20;91.20;;;;;;4936624;29;20486;-76
2021/07/18 07:08:57;;;;;;;12.37;11.77;;;27.50;91.30;;;;;;4936354;29;20486;-76
2021/07/18 07:11:23;;;;;;;12.50;11.80;;;27.70;91.00;;;;;;4948650;29;21021;-76
2021/07/18 07:13:51;;;;;;;12.60;12.00;;;27.70;90.00;;;;;;4955670;29;20468;-76
2021/07/18 07:16:18;;;;;;;13.20;12.20;;;27.90;89.90;;;;;;4955566;28;20480;-77
2021/07/18 07:18:45;;;;;;;13.23;12.27;;;28.10;90.20;;;;;;4955164;29;20973;-77
2021/07/18 07:21:13;;;;;;;12.50;12.00;;;28.40;88.40;;;;;;4955227;29;20464;-76
2021/07/18 07:23:41;;;;;;;12.40;11.80;;;28.50;87.80;;;;;;4955028;29;20500;-76
2021/07/18 07:26:08;;;;;;;13.40;12.87;;;28.60;87.80;;;;;;4955295;29;20460;-77
2021/07/18 07:28:35;;;;;;;13.53;12.63;;;28.90;87.40;;;;;;4955197;29;20460;-75
2021/07/18 07:31:02;;;;;;;13.83;13.13;;;29.20;85.90;;;;;;4955282;29;20444;-77
2021/07/18 07:33:30;;;;;;;11.83;11.33;;;29.40;85.00;;;;;;4955007;29;20460;-74
2021/07/18 07:35:57;;;;;;;12.20;11.50;;;29.60;84.80;;;;;;4954703;29;20467;-74
2021/07/18 07:38:24;;;;;;;12.90;12.20;;;29.80;83.20;;;;;;4954021;28;20456;-74
2021/07/18 07:40:52;;;;;;;12.07;11.47;;;29.00;84.60;;;;;;4954904;29;20476;-74
2021/07/18 07:43:19;;;;;;;11.50;10.90;;;28.40;87.00;;;;;;4954827;29;20487;-74
2021/07/18 07:45:46;;;;;;;11.57;11.07;;;28.50;87.50;;;;;;4954652;29;20479;-73
2021/07/18 07:48:12;;;;;;;12.47;11.80;;;28.90;86.40;;;;;;4954358;29;20461;-74
2021/07/18 07:50:39;;;;;;;11.63;11.10;;;29.20;84.70;;;;;;4954372;29;20456;-73
2021/07/18 07:53:06;;;;;;;12.60;11.87;;;29.40;84.00;;;;;;4954486;29;20503;-74
2021/07/18 07:55:33;;;;;;;12.70;12.10;;;29.50;84.40;;;;;;4941855;29;20509;-73
2021/07/18 07:58:05;;;;;;;12.10;11.60;;;29.90;82.70;;;;;;4935002;29;20512;-74
2021/07/18 08:00:32;;;;;;;12.93;12.33;;;29.40;83.20;;;;;;4954007;29;20515;-74
2021/07/18 08:02:58;;;;;;;12.87;12.20;;;29.30;83.70;;;;;;4954019;29;20491;-74
2021/07/18 08:05:25;;;;;;;13.00;12.40;;;29.50;85.00;;;;;;4954372;29;20456;-74
2021/07/18 08:07:52;;;;;;;13.57;12.87;;;29.90;83.70;;;;;;4953003;28;20461;-73
2021/07/18 08:10:21;;;;;;;13.33;12.43;;;30.10;81.90;;;;;;4954099;29;20452;-74
2021/07/18 08:12:48;;;;;;;14.03;13.30;;;30.10;82.90;;;;;;4953763;29;20837;-74
2021/07/18 08:15:18;;;;;;;13.40;12.83;;;29.70;83.20;;;;;;4953860;29;20985;-74
2021/07/18 08:17:45;;;;;;;12.90;12.20;;;30.10;81.90;;;;;;4953783;28;20456;-74
2021/07/18 08:20:14;;;;;;;11.87;11.37;;;30.50;80.70;;;;;;4953749;29;20861;-74
2021/07/18 08:22:41;;;;;;;12.30;11.70;;;30.60;81.20;;;;;;4953337;29;20488;-74
2021/07/18 08:25:09;;;;;;;12.13;11.53;;;31.10;78.50;;;;;;4953789;29;20452;-74
2021/07/18 08:27:37;;;;;;;12.30;11.80;;;31.10;80.60;;;;;;4953796;29;20460;-74
2021/07/18 08:30:05;;;;;;;12.87;12.27;;;31.80;77.60;;;;;;4953875;29;20463;-75
2021/07/18 08:32:33;;;;;;;24.07;13.10;;;31.90;77.80;;;;;;4953589;29;20811;-74
2021/07/18 08:35:00;;;;;;;13.30;12.60;;;31.60;76.10;;;;;;4953621;29;20452;-74
2021/07/18 08:37:27;;;;;;;12.93;12.30;;;31.10;77.10;;;;;;4953388;29;20463;-74
2021/07/18 08:39:54;;;;;;;14.97;13.90;;;31.40;77.30;;;;;;4953398;29;20467;-74
2021/07/18 08:42:20;;;;;;;13.53;12.93;;;32.10;75.60;;;;;;4953464;29;20456;-74
2021/07/18 08:44:47;;;;;;;12.93;12.23;;;32.60;74.20;;;;;;4953311;29;20495;-74
2021/07/18 08:47:16;;;;;;;13.00;12.10;;;32.50;75.00;;;;;;4951719;29;20480;-74
2021/07/18 08:49:44;;;;;;;13.03;12.40;;;32.10;74.40;;;;;;4954257;29;20494;-74
2021/07/18 08:52:12;;;;;;;13.60;13.00;;;31.40;78.90;;;;;;4953733;29;20457;-74
2021/07/18 08:54:39;;;;;;;13.63;12.80;;;31.60;77.70;;;;;;4954007;29;20453;-74
2021/07/18 08:57:06;;;;;;;14.23;13.63;;;32.40;76.70;;;;;;4953814;29;20464;-74
2021/07/18 08:59:34;;;;;;;13.10;12.60;;;32.30;74.70;;;;;;4953878;29;20453;-74
2021/07/18 09:02:02;;;;;;;13.50;12.90;;;32.10;76.10;;;;;;4953787;28;20500;-74
2021/07/18 09:04:29;;;;;;;12.73;12.03;;;32.00;74.90;;;;;;4953339;29;20579;-73
2021/07/18 09:07:04;;;;;;;13.53;12.90;;;32.20;74.60;;;;;;4953707;29;20456;-73
2021/07/18 09:09:32;;;;;;;13.03;12.33;;;31.70;76.10;;;;;;4953706;29;20459;-74
2021/07/18 09:12:00;;;;;;;14.10;13.13;;;32.00;77.20;;;;;;4953686;29;20514;-74
2021/07/18 09:14:31;;;;;;;13.90;13.17;;;32.20;74.90;;;;;;4953134;28;20476;-74
2021/07/18 09:16:58;;;;;;;13.73;13.13;;;32.00;76.10;;;;;;4953569;29;20452;-74
2021/07/18 09:19:27;;;;;;;15.63;14.83;;;32.20;75.20;;;;;;4953098;28;20453;-75
2021/07/18 09:22:14;;;;;;;13.03;12.37;;;32.20;75.40;;;;;;4953576;29;20452;-74
2021/07/18 09:24:44;;;;;;;13.00;12.40;;;32.30;74.30;;;;;;4953152;29;20495;-74
2021/07/18 09:27:15;;;;;;;14.17;13.23;;;32.10;75.00;;;;;;4953105;29;20456;-74
2021/07/18 09:29:45;;;;;;;12.93;12.40;;;32.00;76.10;;;;;;4953278;29;20452;-74
2021/07/18 09:32:14;;;;;;;12.93;12.33;;;31.70;76.30;;;;;;4952853;29;20479;-74
2021/07/18 09:34:42;;;;;;;12.63;12.10;;;31.80;75.80;;;;;;4953132;29;20958;-75
2021/07/18 09:37:17;;;;;;;12.70;12.10;;;32.10;75.30;;;;;;4952989;29;20465;-74
2021/07/18 09:39:55;;;;;;;13.57;12.77;;;32.70;74.50;;;;;;4953107;29;20464;-74
2021/07/18 09:42:34;;;;;;;13.83;13.13;;;32.80;73.50;;;;;;4953022;29;20483;-74
2021/07/18 09:45:03;;;;;;;13.83;13.23;;;32.70;72.70;;;;;;4952928;29;20496;-74
2021/07/18 09:47:30;;;;;;;14.00;13.30;;;32.60;73.10;;;;;;4952824;28;20465;-74
2021/07/18 09:49:56;;;;;;;13.63;12.93;;;33.30;73.10;;;;;;4953022;29;21121;-73
2021/07/18 09:52:26;;;;;;;13.20;12.50;;;33.30;70.90;;;;;;4952735;29;20457;-74
2021/07/18 09:54:54;;;;;;;13.87;13.03;;;33.10;72.10;;;;;;4953065;29;20453;-74
2021/07/18 09:57:36;;;;;;;13.83;13.03;;;33.00;72.50;;;;;;4952748;29;20808;-74
2021/07/18 10:00:06;;;;;;;13.90;13.30;;;32.80;71.60;;;;;;4952958;29;20457;-73
2021/07/18 10:02:33;;;;;;;13.53;13.03;;;32.40;74.50;;;;;;4952674;29;20457;-73
2021/07/18 10:05:03;;;;;;;13.63;13.07;;;32.50;74.40;;;;;;4952798;29;20485;-74
2021/07/18 10:07:36;;;;;;;13.90;13.13;;;32.30;74.60;;;;;;4952623;29;20966;-74
2021/07/18 10:10:06;;;;;;;13.60;12.80;;;32.40;73.90;;;;;;4952878;29;20460;-73
2021/07/18 10:12:34;;;;;;;13.17;12.57;;;32.30;73.60;;;;;;4952790;29;20865;-74
2021/07/18 10:15:01;;;;;;;13.23;12.50;;;32.80;74.30;;;;;;4952695;29;20484;-74
2021/07/18 10:17:30;;;;;;;13.00;12.40;;;33.30;71.90;;;;;;4952613;29;20475;-73
2021/07/18 10:19:57;;;;;;;13.97;13.27;;;33.30;71.00;;;;;;4952598;29;20488;-74
2021/07/18 10:22:26;;;;;;;13.50;12.90;;;32.80;73.10;;;;;;4952398;29;20512;-74
2021/07/18 10:24:56;;;;;;;13.30;12.63;;;33.00;72.60;;;;;;4952695;29;20523;-74
2021/07/18 10:27:22;;;;;;;13.80;13.10;;;33.10;72.90;;;;;;4952507;29;20464;-74
2021/07/18 10:29:52;;;;;;;14.03;13.43;;;33.90;70.10;;;;;;4952818;28;20511;-74
2021/07/18 10:32:20;;;;;;;12.20;11.70;;;33.50;70.10;;;;;;4956575;29;20547;-74
2021/07/18 10:34:51;;;;;;;14.47;13.40;;;33.10;71.20;;;;;;4956659;29;20455;-74
2021/07/18 10:37:17;;;;;;;14.07;13.10;;;32.80;72.70;;;;;;4956386;29;20463;-74
2021/07/18 10:39:44;;;;;;;14.43;13.63;;;32.80;72.70;;;;;;4956525;29;20456;-74
2021/07/18 10:42:16;;;;;;;13.80;13.20;;;33.90;70.30;;;;;;4956126;29;20459;-74
2021/07/18 10:44:46;;;;;;;14.73;13.73;;;34.70;66.70;;;;;;4956267;29;20492;-73
2021/07/18 10:47:13;;;;;;;14.07;13.57;;;34.00;68.60;;;;;;4956163;29;20460;-73
2021/07/18 10:50:01;;;;;;;14.70;14.00;;;33.60;69.50;;;;;;4956178;29;20460;-74
2021/07/18 10:52:33;;;;;;;14.37;13.67;;;33.30;71.10;;;;;;4955940;29;20449;-74
2021/07/18 10:55:00;;;;;;;13.90;13.20;;;33.00;70.70;;;;;;4955899;29;20444;-74
2021/07/18 10:57:32;;;;;;;14.30;13.60;;;33.00;71.80;;;;;;4955906;29;20463;-74
2021/07/18 11:00:19;;;;;;;14.10;13.40;;;33.40;70.60;;;;;;4956138;29;20472;-74
2021/07/18 11:02:46;;;;;;;14.00;13.03;;;33.40;70.00;;;;;;4955970;29;20456;-74
2021/07/18 11:05:16;;;;;;;12.83;12.17;;;34.20;69.50;;;;;;4955601;29;20500;-74
2021/07/18 11:07:52;;;;;;;14.63;13.37;;;34.40;69.20;;;;;;4955994;29;20560;-74
2021/07/18 11:10:20;;;;;;;12.83;12.33;;;34.80;66.70;;;;;;4955866;29;20452;-74
2021/07/18 11:12:50;;;;;;;14.60;13.90;;;34.50;66.50;;;;;;4955920;29;20531;-75
2021/07/18 11:15:23;;;;;;;13.67;13.07;;;34.00;66.30;;;;;;4955141;28;20516;-74
2021/07/18 11:18:07;;;;;;;14.37;13.57;;;32.70;68.90;;;;;;4955839;29;20461;-74
2021/07/18 11:21:01;;;;;;;14.33;13.47;;;32.40;71.40;;;;;;4955838;29;20448;-75
2021/07/18 11:23:30;;;;;;;13.83;13.17;;;31.80;72.80;;;;;;4918273;29;20789;-73
2021/07/18 11:26:08;;;;;;;15.23;14.43;;;32.00;73.80;;;;;;4955121;28;20495;-73
2021/07/18 11:28:51;;;;;;;13.27;12.57;;;32.70;71.60;;;;;;4955545;29;20491;-74
2021/07/18 11:31:34;;;;;;;13.40;12.70;;;32.90;70.20;;;;;;4955272;28;20460;-74
2021/07/18 11:34:11;;;;;;;13.97;13.17;;;33.20;69.30;;;;;;4955520;28;20460;-73
2021/07/18 11:37:01;;;;;;;14.20;13.50;;;32.60;70.80;;;;;;4952891;29;20871;-74
2021/07/18 11:39:28;;;;;;;13.50;12.70;;;33.00;70.10;;;;;;4954992;29;20476;-73
2021/07/18 11:41:56;;;;;;;13.67;12.77;;;33.30;70.10;;;;;;4954728;28;20464;-74
2021/07/18 11:44:29;;;;;;;14.03;13.07;;;33.50;69.00;;;;;;4954941;29;20492;-74
2021/07/18 11:47:00;;;;;;;13.60;13.00;;;33.80;67.10;;;;;;4954814;29;20457;-74
2021/07/18 11:49:33;;;;;;;16.70;15.70;;;33.60;67.40;;;;;;4954737;29;20731;-73
2021/07/18 11:52:00;;;;;;;15.47;14.50;;;34.00;67.70;;;;;;4954690;29;20461;-74
2021/07/18 11:54:27;;;;;;;15.03;14.23;;;34.60;65.80;;;;;;4954442;29;20452;-74
2021/07/18 11:56:54;;;;;;;15.03;14.23;;;35.20;64.20;;;;;;4954212;29;20461;-74
2021/07/18 11:59:24;;;;;;;15.27;14.40;;;34.20;63.40;;;;;;4954949;29;20456;-74
2021/07/18 12:01:52;;;;;;;14.70;14.00;;;33.60;66.90;;;;;;4954825;29;20459;-74
2021/07/18 12:04:23;;;;;;;14.30;13.70;;;33.80;65.90;;;;;;4954657;29;20959;-74
2021/07/18 12:06:52;;;;;;;14.60;13.90;;;32.30;68.10;;;;;;4954736;29;20468;-74
2021/07/18 12:09:21;;;;;;;15.43;14.53;;;32.10;69.90;;;;;;4954709;29;20471;-75
2021/07/18 12:11:49;;;;;;;14.57;13.80;;;32.60;69.30;;;;;;4954316;29;20456;-73
2021/07/18 12:14:17;;;;;;;15.00;14.20;;;33.40;68.80;;;;;;4954085;29;20479;-75
2021/07/18 12:16:46;;;;;;;15.43;14.73;;;34.00;66.30;;;;;;4953983;28;20543;-75
2021/07/18 12:19:13;;;;;;;15.23;14.47;;;33.70;66.60;;;;;;4954372;29;20475;-74
2021/07/18 12:21:41;;;;;;;15.47;14.77;;;32.90;67.10;;;;;;4954223;29;20452;-75
2021/07/18 12:24:13;;;;;;;16.00;15.10;;;33.60;65.50;;;;;;4954080;29;20453;-74
2021/07/18 12:26:41;;;;;;;16.20;15.30;;;33.70;65.50;;;;;;4954017;29;20459;-74
2021/07/18 12:29:10;;;;;;;15.83;15.00;;;33.20;65.30;;;;;;4954116;29;20452;-74
2021/07/18 12:31:39;;;;;;;17.00;16.10;;;33.10;66.80;;;;;;4954178;29;20452;-74
2021/07/18 12:34:08;;;;;;;17.57;16.40;;;33.50;66.60;;;;;;4954206;29;20950;-74